Latest Coastal Weather Observations for Bougainville Reef

IDQ60701

Issued at 10:32 am EST Monday 25 September 2017 (issued every 10 minutes, with the page automatically refreshed every 10 minutes)

About coastal observations | Map of coastal stations | Coastal observations for QLD | Marine services | Other Formats
Station Details ID: 200840 Name: BOUGAINVILLE REEF Lat: -15.49 Lon: 147.12 Height: 0.0 m
Data from the previous 72 hours. | See also: Recent months for locations in Queensland
Date/Time
EST
Temp
°C
Wind Pressure Rain since
9am
mm
Weather Cloud Vis
km
Sea
Height
m
Swell
Dir  Spd
kts
Gust
kts
hPa Trend Height
m
Period
s
Dir
25/10:30am 24.5 ESE 16 18 1015.4 - - - - - - - - -
25/10:00am 24.7 SE 16 18 1015.5 - - - - - - - - -
25/09:30am 24.4 SE 16 18 1015.6 - - - - - - - - -
25/09:00am 24.5 SE 16 18 1015.5 - - - - - - - - -
25/08:30am 24.5 SE 15 17 1015.4 - - - - - - - - -
25/08:00am 24.4 ESE 16 18 1015.0 - - - - - - - - -
25/07:30am 24.3 SE 18 19 1014.8 - - - - - - - - -
25/07:00am 24.4 ESE 18 21 1014.2 - - - - - - - - -
25/06:30am 24.2 ESE 18 20 1014.2 - - - - - - - - -
25/06:00am 24.1 ESE 17 18 1013.7 - - - - - - - - -
25/05:30am 24.3 ESE 16 18 1013.7 - - - - - - - - -
25/05:00am 24.2 ESE 17 18 1013.2 - - - - - - - - -
25/04:30am 24.1 ESE 16 17 1013.1 - - - - - - - - -
25/04:00am 24.4 ESE 16 18 1012.7 - - - - - - - - -
25/03:30am 24.1 ESE 17 19 1012.8 - - - - - - - - -
25/03:00am 24.3 ESE 17 19 1012.7 - - - - - - - - -
25/02:30am 24.3 ESE 17 19 1012.9 - - - - - - - - -
25/02:00am 24.3 ESE 16 17 1013.2 - - - - - - - - -
25/01:30am 24.3 ESE 15 17 1013.5 - - - - - - - - -
25/01:00am 24.4 ESE 16 18 1013.7 - - - - - - - - -
25/12:30am 24.1 ESE 16 18 1013.8 - - - - - - - - -
25/12:00am 24.3 SE 17 19 1014.0 - - - - - - - - -
 
Date/Time
EST
Temp
°C
Wind Pressure Rain since
9am
mm
Weather Cloud Vis
km
Sea
Height
m
Swell
Dir  Spd
kts
Gust
kts
hPa Trend Height
m
Period
s
Dir
24/11:30pm 24.5 SE 17 20 1014.1 - - - - - - - - -
24/11:00pm 24.3 ESE 17 19 1014.3 - - - - - - - - -
24/10:30pm 24.3 ESE 17 19 1014.4 - - - - - - - - -
24/10:00pm 24.5 SE 18 20 1014.1 - - - - - - - - -
24/09:30pm 24.3 ESE 15 17 1014.4 - - - - - - - - -
24/09:00pm 24.4 ESE 16 18 1014.1 - - - - - - - - -
24/08:30pm 24.4 ESE 16 19 1014.0 - - - - - - - - -
24/08:00pm 24.5 ESE 15 19 1013.4 - - - - - - - - -
24/07:30pm 24.4 ESE 16 18 1013.4 - - - - - - - - -
24/07:00pm 24.4 ESE 15 17 1012.9 - - - - - - - - -
24/06:30pm 24.3 SE 14 17 1012.9 - - - - - - - - -
24/06:00pm 24.6 SE 14 17 1012.7 - - - - - - - - -
24/05:30pm 24.6 ESE 14 17 1012.7 - - - - - - - - -
24/05:00pm 24.5 SE 15 17 1012.4 - - - - - - - - -
24/04:30pm 24.4 SE 15 18 1012.3 - - - - - - - - -
24/04:00pm 24.5 SE 15 17 1012.2 - - - - - - - - -
24/03:30pm 24.3 SE 15 17 1012.3 - - - - - - - - -
24/03:00pm 24.4 SE 15 17 1012.7 - - - - - - - - -
24/02:30pm 24.5 SE 16 17 1013.0 - - - - - - - - -
24/02:00pm 24.4 SE 16 17 1013.5 - - - - - - - - -
24/01:30pm 24.4 SE 16 19 1013.7 - - - - - - - - -
24/01:00pm 24.5 SE 16 19 1014.1 - - - - - - - - -
24/12:30pm 24.4 SE 17 19 1014.5 - - - - - - - - -
24/12:00pm 24.4 SE 17 20 1014.8 - - - - - - - - -
24/11:30am 24.5 SE 17 20 1015.1 - - - - - - - - -
24/11:00am 24.5 SE 18 20 1015.3 - - - - - - - - -
24/10:30am 24.5 SE 17 19 1015.5 - - - - - - - - -
24/10:00am 24.5 SE 17 20 1015.4 - - - - - - - - -
24/09:30am 24.6 SE 16 18 1015.6 - - - - - - - - -
24/09:00am 24.4 SE 16 19 1015.5 - - - - - - - - -
24/08:30am 24.4 SE 16 18 1015.6 - - - - - - - - -
24/08:00am 24.3 SE 17 19 1015.2 - - - - - - - - -
24/07:30am 24.4 SE 17 19 1014.8 - - - - - - - - -
24/07:00am 24.3 ESE 16 18 1014.5 - - - - - - - - -
24/06:30am 24.2 ESE 17 19 1014.5 - - - - - - - - -
24/06:00am 24.1 ESE 17 19 1013.8 - - - - - - - - -
24/05:30am 24.3 ESE 18 21 1013.9 - - - - - - - - -
24/05:00am 24.2 ESE 18 22 1013.6 - - - - - - - - -
24/04:30am 24.1 ESE 17 19 1013.7 - - - - - - - - -
24/04:00am 24.2 ESE 18 20 1013.3 - - - - - - - - -
24/03:30am 24.1 ESE 17 20 1013.3 - - - - - - - - -
24/03:00am 24.1 SE 18 20 1013.3 - - - - - - - - -
24/02:30am 24.0 ESE 17 19 1013.5 - - - - - - - - -
24/02:00am 24.2 ESE 17 20 1013.8 - - - - - - - - -
24/01:30am 24.1 ESE 18 20 1013.9 - - - - - - - - -
24/01:00am 24.2 SE 16 19 1014.2 - - - - - - - - -
24/12:30am 24.4 SE 18 20 1014.4 - - - - - - - - -
24/12:00am 24.2 SE 18 21 1014.5 - - - - - - - - -
 
Date/Time
EST
Temp
°C
Wind Pressure Rain since
9am
mm
Weather Cloud Vis
km
Sea
Height
m
Swell
Dir  Spd
kts
Gust
kts
hPa Trend Height
m
Period
s
Dir
23/11:30pm 24.3 SE 17 21 1014.7 - - - - - - - - -
23/11:00pm 24.4 ESE 17 20 1015.0 - - - - - - - - -
23/10:30pm 24.4 ESE 17 20 1015.3 - - - - - - - - -
23/10:00pm 24.2 ESE 17 19 1015.2 - - - - - - - - -
23/09:30pm 24.3 ESE 17 19 1015.3 - - - - - - - - -
23/09:00pm 24.4 ESE 17 20 1014.8 - - - - - - - - -
23/08:30pm 24.3 ESE 18 19 1014.9 - - - - - - - - -
23/08:00pm 24.4 ESE 18 21 1014.5 - - - - - - - - -
23/07:30pm 24.4 ESE 17 21 1014.3 - - - - - - - - -
23/07:00pm 24.4 SE 16 19 1013.9 - - - - - - - - -
23/06:30pm 24.5 SE 17 19 1013.9 - - - - - - - - -
23/06:00pm 24.5 SE 17 18 1013.7 - - - - - - - - -
23/05:30pm 24.4 SE 16 18 1013.7 - - - - - - - - -
23/05:00pm 24.4 SE 15 18 1013.7 - - - - - - - - -
23/04:30pm 24.5 SE 15 18 1013.8 - - - - - - - - -
23/04:00pm 24.4 SE 16 19 1013.6 - - - - - - - - -
23/03:30pm 24.3 SE 16 19 1013.8 - - - - - - - - -
23/03:00pm 24.5 SE 17 19 1013.6 - - - - - - - - -
23/02:30pm 24.4 SE 16 19 1013.9 - - - - - - - - -
23/02:00pm 24.6 SE 17 19 1014.2 - - - - - - - - -
23/01:30pm 24.3 SE 17 19 1014.6 - - - - - - - - -
23/01:00pm 24.3 SE 17 18 1014.9 - - - - - - - - -
23/12:30pm 24.6 SE 16 19 1015.3 - - - - - - - - -
23/12:00pm 24.4 SE 17 18 1015.8 - - - - - - - - -
23/11:30am 24.4 SE 17 20 1016.1 - - - - - - - - -
23/11:00am 24.4 SE 16 19 1016.3 - - - - - - - - -
23/10:30am 24.3 SE 17 19 1016.6 - - - - - - - - -
23/10:00am 24.3 SE 16 18 1016.6 - - - - - - - - -
23/09:30am 24.2 ESE 15 18 1016.7 - - - - - - - - -
23/09:00am 24.2 ESE 16 19 1016.6 - - - - - - - - -
23/08:30am 24.2 ESE 17 19 1016.5 - - - - - - - - -
23/08:00am 24.2 ESE 17 20 1016.0 - - - - - - - - -
23/07:30am 24.2 ESE 17 19 1015.9 - - - - - - - - -
23/07:00am 24.0 ESE 18 19 1015.2 - - - - - - - - -
23/06:30am 24.0 ESE 18 21 1015.1 - - - - - - - - -
23/06:00am 24.0 ESE 18 19 1014.8 - - - - - - - - -
23/05:30am 24.0 ESE 19 21 1014.8 - - - - - - - - -
23/05:00am 23.9 ESE 21 25 1014.4 - - - - - - - - -
23/04:30am 23.8 ESE 19 22 1014.5 - - - - - - - - -
23/04:00am 24.1 ESE 20 23 1014.2 - - - - - - - - -
23/03:30am 24.0 ESE 19 22 1014.4 - - - - - - - - -
23/03:00am 24.0 ESE 18 22 1014.5 - - - - - - - - -
23/02:30am 23.9 SE 19 21 1014.7 - - - - - - - - -
23/02:00am 24.1 ESE 20 22 1014.7 - - - - - - - - -
23/01:30am 24.2 SE 19 21 1015.0 - - - - - - - - -
23/01:00am 24.1 ESE 18 21 1015.1 - - - - - - - - -
23/12:30am 24.1 ESE 17 21 1015.3 - - - - - - - - -
23/12:00am 24.0 ESE 18 19 1015.5 - - - - - - - - -
 
Date/Time
EST
Temp
°C
Wind Pressure Rain since
9am
mm
Weather Cloud Vis
km
Sea
Height
m
Swell
Dir  Spd
kts
Gust
kts
hPa Trend Height
m
Period
s
Dir
22/11:30pm 24.3 ESE 18 19 1015.7 - - - - - - - - -
22/11:00pm 24.3 ESE 17 20 1015.8 - - - - - - - - -
22/10:30pm 24.3 ESE 17 20 1016.0 - - - - - - - - -
22/10:00pm 24.3 ESE 16 19 1015.9 - - - - - - - - -
22/09:30pm 24.3 SE 16 18 1015.9 - - - - - - - - -
22/09:00pm 24.5 ESE 15 18 1015.7 - - - - - - - - -
22/08:30pm 24.5 ESE 15 17 1015.8 - - - - - - - - -
22/08:00pm 24.4 ESE 14 17 1015.1 - - - - - - - - -
22/07:30pm 24.4 ESE 14 15 1015.0 - - - - - - - - -
22/07:00pm 24.3 ESE 15 17 1014.4 - - - - - - - - -
22/06:30pm 24.4 ESE 15 17 1014.4 - - - - - - - - -
22/06:00pm 24.4 ESE 15 17 1014.0 - - - - - - - - -
22/05:30pm 24.5 SE 16 17 1014.0 - - - - - - - - -
22/05:00pm 24.6 SE 15 17 1013.8 - - - - - - - - -
22/04:30pm 24.5 ESE 14 17 1013.8 - - - - - - - - -
22/04:00pm 24.5 ESE 15 17 1013.8 - - - - - - - - -
22/03:30pm 24.4 ESE 16 17 1013.9 - - - - - - - - -
22/03:00pm 24.5 ESE 17 17 1014.0 - - - - - - - - -
22/02:30pm 24.6 ESE 17 19 1014.3 - - - - - - - - -
22/02:00pm 24.5 ESE 16 18 1014.7 - - - - - - - - -
22/01:30pm 24.4 ESE 16 18 1015.0 - - - - - - - - -
22/01:00pm 24.7 ESE 16 19 1015.5 - - - - - - - - -
22/12:30pm 24.6 ESE 16 18 1015.8 - - - - - - - - -
22/12:00pm 24.7 ESE 16 19 1016.3 - - - - - - - - -
22/11:30am 24.4 ESE 17 21 1016.6 - - - - - - - - -
22/11:00am 24.5 ESE 17 18 1016.9 - - - - - - - - -

Other Formats:

Comma delimited format used in spreadsheet applications
http://www.bom.gov.au/fwo/IDQ60701/IDQ60701.95288.axf

JavaScript Object Notation format (JSON) in row-major order
http://www.bom.gov.au/fwo/IDQ60701/IDQ60701.95288.json